Time;durP1;ratioP1;P1;durP2;ratioP2;P2;SDS_P1;SDS_P2;PMS_P1;PMS_P2;Temp;Humidity;BMP_temperature;BMP_pressure;BME280_temperature;BME280_humidity;BME280_pressure;Samples;Min_cycle;Max_cycle;Signal;HPM_P1;HPM_P2
2023/08/04 00:01:15;;;;;;;1.25;0.55;;;;;;;35.67;22.74;100945.34;4953645;28;20501;-81
2023/08/04 00:03:43;;;;;;;1.38;0.50;;;;;;;35.69;22.83;100945.22;4952343;28;20716;-78
2023/08/04 00:06:12;;;;;;;0.90;0.60;;;;;;;35.68;22.99;100941.69;4953588;28;20047;-80
2023/08/04 00:08:44;;;;;;;3.30;0.40;;;;;;;35.69;23.27;100935.34;4951780;28;20106;-80
2023/08/04 00:11:14;;;;;;;0.75;0.40;;;;;;;35.63;23.15;100943.84;4953397;28;20062;-81
2023/08/04 00:13:42;;;;;;;1.80;0.70;;;;;;;35.66;23.81;100947.16;4952440;28;20043;-81
2023/08/04 00:16:11;;;;;;;1.40;0.68;;;;;;;35.64;23.00;100949.13;4953430;28;20058;-79
2023/08/04 00:18:40;;;;;;;4.65;0.70;;;;;;;35.61;22.99;100949.34;4952961;28;20122;-78
2023/08/04 00:21:08;;;;;;;1.85;0.50;;;;;;;35.57;23.25;100953.19;4953023;28;20058;-79
2023/08/04 00:23:37;;;;;;;1.38;0.50;;;;;;;35.51;22.73;100945.59;4949990;28;20074;-80
2023/08/04 00:26:06;;;;;;;0.85;0.40;;;;;;;35.44;23.05;100947.84;4954816;28;20074;-80
2023/08/04 00:28:36;;;;;;;0.50;0.47;;;;;;;35.43;23.20;100951.50;4952843;28;20158;-77
2023/08/04 00:31:05;;;;;;;0.73;0.40;;;;;;;35.41;24.12;100939.13;4953418;28;20050;-80
2023/08/04 00:33:34;;;;;;;1.20;0.50;;;;;;;35.24;22.95;100938.50;4953289;28;20062;-80
2023/08/04 00:36:02;;;;;;;0.55;0.40;;;;;;;35.13;23.91;100943.81;4954771;28;20115;-77
2023/08/04 00:38:31;;;;;;;5.85;0.80;;;;;;;34.99;23.29;100935.81;4953310;28;20130;-79
2023/08/04 00:41:00;;;;;;;0.47;0.40;;;;;;;34.79;23.76;100931.84;4941325;28;20458;-81
2023/08/04 00:43:33;;;;;;;2.15;0.50;;;;;;;34.61;24.55;100931.28;4954022;28;20051;-82
2023/08/04 00:46:03;;;;;;;1.08;0.50;;;;;;;34.41;24.83;100935.31;4955514;28;20600;-80
2023/08/04 00:48:32;;;;;;;0.70;0.40;;;;;;;34.20;25.06;100938.50;4949524;28;20031;-80
2023/08/04 00:51:00;;;;;;;1.02;0.47;;;;;;;33.97;25.77;100931.94;4943515;28;20054;-82
2023/08/04 00:53:29;;;;;;;0.52;0.43;;;;;;;33.80;26.29;100926.81;4953724;28;20059;-86
2023/08/04 00:55:57;;;;;;;0.43;0.43;;;;;;;33.74;26.64;100930.75;4943328;28;20553;-84
2023/08/04 00:58:26;;;;;;;1.75;0.50;;;;;;;33.72;26.43;100929.13;4957038;28;20062;-83
2023/08/04 01:00:55;;;;;;;0.68;0.60;;;;;;;33.65;26.26;100920.63;4952982;28;20513;-82
2023/08/04 01:03:28;;;;;;;1.58;0.60;;;;;;;33.75;26.20;100920.88;4954235;28;20047;-82
2023/08/04 01:06:02;;;;;;;1.02;0.60;;;;;;;33.78;26.03;100936.78;4941377;28;20047;-82
2023/08/04 01:08:35;;;;;;;4.85;0.77;;;;;;;33.84;25.03;100928.34;4956346;28;20086;-82
2023/08/04 01:11:08;;;;;;;0.70;0.40;;;;;;;33.92;26.59;100934.03;4954428;28;20099;-80
2023/08/04 01:13:44;;;;;;;0.57;0.47;;;;;;;33.90;25.52;100936.00;4953934;28;20103;-83
2023/08/04 01:16:12;;;;;;;0.60;0.50;;;;;;;33.88;25.46;100927.19;4952968;28;20055;-80
2023/08/04 01:18:42;;;;;;;4.40;0.60;;;;;;;33.86;25.18;100928.22;4952732;28;20059;-80
2023/08/04 01:21:13;;;;;;;2.00;0.50;;;;;;;33.82;25.28;100921.34;4954309;28;20102;-78
2023/08/04 01:23:41;;;;;;;0.98;0.50;;;;;;;33.80;25.91;100929.50;4952823;28;20047;-80
2023/08/04 01:26:10;;;;;;;1.27;0.57;;;;;;;33.83;25.54;100928.41;4953933;28;20055;-81
2023/08/04 01:28:40;;;;;;;1.58;0.52;;;;;;;33.88;25.50;100931.66;4952821;28;20099;-80
2023/08/04 01:31:11;;;;;;;0.50;0.40;;;;;;;33.88;25.75;100932.53;4954089;28;20122;-80
2023/08/04 01:33:39;;;;;;;1.58;0.65;;;;;;;33.85;25.67;100938.09;4953268;28;20059;-78
2023/08/04 01:36:12;;;;;;;0.75;0.70;;;;;;;33.84;26.50;100939.06;4957396;28;20047;-79
2023/08/04 01:38:41;;;;;;;0.88;0.70;;;;;;;33.75;25.80;100929.78;4952302;28;20059;-81
2023/08/04 01:41:10;;;;;;;3.05;0.60;;;;;;;33.69;25.55;100932.00;4954533;28;20051;-79
2023/08/04 01:43:38;;;;;;;2.45;0.82;;;;;;;33.68;25.49;100930.31;4947898;28;20051;-77
2023/08/04 01:46:09;;;;;;;0.60;0.50;;;;;;;33.69;25.85;100932.00;4951881;28;20051;-79
2023/08/04 01:48:38;;;;;;;0.50;0.50;;;;;;;33.67;25.41;100931.25;4948863;28;20047;-80
2023/08/04 01:51:07;;;;;;;1.50;0.47;;;;;;;33.59;26.48;100932.59;4946512;28;20051;-79
2023/08/04 01:53:38;;;;;;;1.17;0.80;;;;;;;33.55;26.82;100928.34;4945302;28;20057;-79
2023/08/04 01:56:13;;;;;;;1.63;0.70;;;;;;;33.49;26.13;100933.25;4945858;28;20051;-78
2023/08/04 01:58:42;;;;;;;3.13;0.80;;;;;;;33.38;26.28;100925.91;4950610;28;20385;-77
2023/08/04 02:01:11;;;;;;;1.77;0.60;;;;;;;33.30;27.05;100931.75;4952961;28;20106;-79
2023/08/04 02:03:39;;;;;;;0.90;0.60;;;;;;;33.26;27.55;100934.72;4951635;28;20055;-79
2023/08/04 02:06:10;;;;;;;6.07;0.70;;;;;;;33.20;27.29;100930.63;4952380;28;20107;-79
2023/08/04 02:08:40;;;;;;;2.15;0.63;;;;;;;33.12;27.76;100946.31;4953165;29;20048;-77
2023/08/04 02:11:10;;;;;;;1.40;0.50;;;;;;;33.06;27.68;100952.91;4949543;28;20059;-76
2023/08/04 02:13:40;;;;;;;2.10;0.57;;;;;;;33.01;27.42;100948.75;4946130;28;20048;-76
2023/08/04 02:16:09;;;;;;;1.48;0.88;;;;;;;32.94;27.50;100956.31;4950875;28;20044;-78
2023/08/04 02:18:45;;;;;;;1.02;0.60;;;;;;;32.73;27.78;100950.44;4952502;28;20043;-76
2023/08/04 02:21:13;;;;;;;2.00;0.55;;;;;;;32.57;27.58;100950.50;4951421;28;20078;-77
2023/08/04 02:23:44;;;;;;;2.30;0.82;;;;;;;32.46;28.22;100958.28;4952119;28;20051;-78
2023/08/04 02:26:12;;;;;;;3.17;0.68;;;;;;;32.33;27.95;100961.69;4952365;28;20047;-77
2023/08/04 02:28:49;;;;;;;2.53;0.60;;;;;;;32.20;27.76;100968.69;4953096;28;20848;-76
2023/08/04 02:31:18;;;;;;;0.93;0.68;;;;;;;32.09;28.10;100966.66;4952853;28;20058;-77
2023/08/04 02:33:47;;;;;;;3.08;0.55;;;;;;;31.90;28.00;100965.94;4950413;28;20053;-78
2023/08/04 02:36:22;;;;;;;4.00;0.50;;;;;;;31.74;28.50;100957.91;4951791;28;20196;-79
2023/08/04 02:38:53;;;;;;;3.13;0.65;;;;;;;31.47;28.18;100966.53;4949318;28;20051;-78
2023/08/04 02:41:21;;;;;;;2.05;0.55;;;;;;;31.31;28.02;100963.78;4949816;28;20047;-78
2023/08/04 02:43:50;;;;;;;1.83;0.65;;;;;;;31.24;28.00;100969.53;4943794;28;20131;-80
2023/08/04 02:46:20;;;;;;;2.35;0.60;;;;;;;31.13;28.32;100974.59;4950853;28;20055;-80
2023/08/04 02:48:49;;;;;;;1.13;0.50;;;;;;;31.01;28.20;100974.28;4942086;28;20646;-79
2023/08/04 02:51:17;;;;;;;3.70;0.50;;;;;;;30.90;28.11;100973.97;4953137;28;20696;-77
2023/08/04 02:53:48;;;;;;;5.72;0.50;;;;;;;30.74;27.59;100986.38;4951237;28;20047;-77
2023/08/04 02:56:21;;;;;;;0.82;0.52;;;;;;;30.59;27.74;100990.72;4951840;28;20063;-76
2023/08/04 02:58:50;;;;;;;1.25;0.30;;;;;;;30.44;27.46;100984.31;4951222;28;20079;-78
2023/08/04 03:01:19;;;;;;;1.65;0.40;;;;;;;30.35;27.87;100999.00;4952248;28;20040;-77
2023/08/04 03:03:47;;;;;;;0.60;0.40;;;;;;;30.25;27.63;100995.88;4951555;28;20044;-78
2023/08/04 03:06:16;;;;;;;0.68;0.50;;;;;;;30.15;28.05;101001.75;4950748;28;20103;-78
2023/08/04 03:08:44;;;;;;;0.85;0.50;;;;;;;30.03;28.20;101000.53;4950898;28;20075;-81
2023/08/04 03:11:13;;;;;;;0.60;0.50;;;;;;;29.96;29.01;101013.31;4951510;28;20127;-79
2023/08/04 03:13:43;;;;;;;2.00;0.50;;;;;;;29.90;29.48;101012.75;4954503;28;20055;-77
2023/08/04 03:16:12;;;;;;;0.90;0.50;;;;;;;29.85;28.91;101024.47;4956298;28;20062;-80
2023/08/04 03:18:41;;;;;;;4.32;0.70;;;;;;;29.82;28.85;101023.75;4951308;28;20097;-78
2023/08/04 03:21:11;;;;;;;1.10;0.50;;;;;;;29.79;29.45;101035.44;4957300;28;20058;-78
2023/08/04 03:23:40;;;;;;;4.25;0.65;;;;;;;29.68;29.45;101032.38;4946741;28;20058;-79
2023/08/04 03:26:08;;;;;;;0.73;0.50;;;;;;;29.59;29.94;101038.97;4952797;28;20110;-78
2023/08/04 03:28:37;;;;;;;2.75;0.70;;;;;;;29.55;29.77;101034.75;4954637;28;20058;-80
2023/08/04 03:31:07;;;;;;;3.03;0.50;;;;;;;29.50;29.27;101038.53;4956954;28;20058;-79
2023/08/04 03:33:36;;;;;;;1.95;0.50;;;;;;;29.43;29.87;101038.78;4954100;28;20572;-78
2023/08/04 03:36:05;;;;;;;1.73;0.50;;;;;;;29.37;29.63;101041.75;4953134;28;20078;-79
2023/08/04 03:38:41;;;;;;;0.73;0.45;;;;;;;29.32;30.05;101045.53;4956166;28;20102;-81
2023/08/04 03:41:09;;;;;;;0.70;0.40;;;;;;;29.23;29.80;101041.50;4955947;28;20429;-79
2023/08/04 03:43:44;;;;;;;0.85;0.50;;;;;;;29.16;30.19;101045.34;4955201;28;20118;-78
2023/08/04 03:46:14;;;;;;;1.10;0.68;;;;;;;29.09;30.49;101044.78;4948972;28;20058;-80
2023/08/04 03:48:43;;;;;;;1.25;0.63;;;;;;;29.02;30.91;101045.91;4954356;28;20047;-77
2023/08/04 03:51:11;;;;;;;0.73;0.57;;;;;;;28.96;31.07;101049.72;4955188;28;20501;-76
2023/08/04 03:53:46;;;;;;;1.13;0.50;;;;;;;28.89;31.77;101058.03;4952991;28;20043;-78
2023/08/04 03:56:14;;;;;;;0.98;0.45;;;;;;;28.77;31.85;101054.97;4953787;28;20051;-78
2023/08/04 03:58:43;;;;;;;1.42;0.60;;;;;;;28.67;32.36;101064.25;4955024;28;20054;-78
2023/08/04 04:01:13;;;;;;;1.15;0.63;;;;;;;28.58;32.16;101073.47;4954113;28;20063;-77
2023/08/04 04:03:45;;;;;;;3.92;0.70;;;;;;;28.49;31.83;101073.84;4954357;28;20051;-77
2023/08/04 04:06:13;;;;;;;1.40;0.52;;;;;;;28.35;31.81;101074.38;4946984;28;20050;-75
2023/08/04 04:08:42;;;;;;;0.55;0.50;;;;;;;28.28;32.07;101082.66;4956329;28;20043;-78
2023/08/04 04:11:11;;;;;;;0.55;0.40;;;;;;;28.22;32.03;101089.06;4955988;28;20692;-78
2023/08/04 04:13:42;;;;;;;0.52;0.45;;;;;;;28.13;32.44;101086.75;4955100;28;20051;-77
2023/08/04 04:16:14;;;;;;;1.15;0.60;;;;;;;28.07;32.51;101095.00;4954769;28;20511;-79
2023/08/04 04:18:43;;;;;;;4.97;0.50;;;;;;;27.98;32.32;101091.75;4955324;28;20564;-77
2023/08/04 04:21:11;;;;;;;2.78;0.60;;;;;;;27.92;32.32;101104.41;4953946;28;20062;-79
2023/08/04 04:23:40;;;;;;;0.90;0.50;;;;;;;27.85;32.57;101108.22;4952836;28;20047;-77
2023/08/04 04:26:11;;;;;;;1.27;0.88;;;;;;;27.76;32.48;101117.38;4953621;28;20110;-78
2023/08/04 04:28:39;;;;;;;0.55;0.43;;;;;;;27.71;32.15;101122.00;4954005;28;20047;-76
2023/08/04 04:31:08;;;;;;;0.88;0.40;;;;;;;27.63;32.55;101129.41;4949768;28;20115;-78
2023/08/04 04:33:38;;;;;;;0.68;0.40;;;;;;;27.55;32.70;101129.66;4952288;29;20058;-77
2023/08/04 04:36:07;;;;;;;1.00;0.50;;;;;;;27.49;33.12;101135.19;4949259;28;20063;-78
2023/08/04 04:38:35;;;;;;;0.52;0.43;;;;;;;27.44;33.18;101147.75;4947610;29;20059;-80
2023/08/04 04:41:04;;;;;;;0.40;0.40;;;;;;;27.39;33.46;101145.25;4946390;28;20059;-78
2023/08/04 04:43:33;;;;;;;0.68;0.50;;;;;;;27.34;33.42;101152.53;4946014;28;20044;-80
2023/08/04 04:46:02;;;;;;;1.00;0.50;;;;;;;27.28;33.37;101166.91;4949781;28;20050;-82
2023/08/04 04:48:31;;;;;;;1.02;0.50;;;;;;;27.21;33.55;101161.81;4948432;28;20047;-80
2023/08/04 04:51:03;;;;;;;1.98;0.70;;;;;;;27.14;33.67;101166.44;4949550;28;20047;-80
2023/08/04 04:53:32;;;;;;;1.20;0.60;;;;;;;27.06;34.03;101163.19;4951314;28;20556;-78
2023/08/04 04:56:00;;;;;;;1.23;0.57;;;;;;;26.99;34.04;101165.16;4948326;28;20134;-80
2023/08/04 04:58:31;;;;;;;1.27;0.50;;;;;;;26.97;34.25;101169.66;4952059;28;20556;-80
2023/08/04 05:01:04;;;;;;;3.13;0.60;;;;;;;26.91;35.84;101170.69;4947377;28;20058;-78
2023/08/04 05:03:32;;;;;;;1.30;0.60;;;;;;;26.84;35.23;101173.63;4950918;28;20051;-80
2023/08/04 05:06:03;;;;;;;0.63;0.30;;;;;;;26.78;34.94;101179.09;4952607;28;20055;-78
2023/08/04 05:08:31;;;;;;;1.40;0.63;;;;;;;26.73;35.28;101179.25;4952874;28;20051;-80
2023/08/04 05:11:04;;;;;;;0.70;0.50;;;;;;;26.68;35.37;101181.19;4945469;28;20058;-79
2023/08/04 05:13:33;;;;;;;0.90;0.55;;;;;;;26.58;35.59;101174.44;4952950;28;20047;-79
2023/08/04 05:16:02;;;;;;;1.55;0.70;;;;;;;26.57;35.71;101178.84;4954085;28;20059;-81
2023/08/04 05:18:30;;;;;;;0.68;0.45;;;;;;;26.50;35.75;101175.50;4951953;28;20594;-80
2023/08/04 05:20:59;;;;;;;2.60;0.70;;;;;;;26.44;35.97;101182.78;4955277;29;20066;-78
2023/08/04 05:23:29;;;;;;;0.70;0.40;;;;;;;26.38;35.49;101180.28;4952655;28;20083;-76
2023/08/04 05:25:58;;;;;;;1.00;0.60;;;;;;;26.31;36.24;101182.25;4950962;28;20123;-77
2023/08/04 05:28:28;;;;;;;1.02;0.60;;;;;;;26.24;36.27;101178.03;4952880;28;20056;-79
2023/08/04 05:31:00;;;;;;;0.65;0.40;;;;;;;26.10;35.46;101181.97;4950245;28;20544;-81
2023/08/04 05:33:30;;;;;;;0.95;0.60;;;;;;;26.01;35.70;101179.56;4951001;28;20046;-79
2023/08/04 05:35:59;;;;;;;2.22;0.55;;;;;;;25.90;34.47;101185.16;4949496;28;20075;-78
2023/08/04 05:38:29;;;;;;;0.80;0.52;;;;;;;25.84;35.19;101184.44;4952313;28;20094;-79
2023/08/04 05:41:02;;;;;;;0.88;0.70;;;;;;;25.79;35.02;101186.34;4950317;28;20059;-77
2023/08/04 05:43:33;;;;;;;0.82;0.50;;;;;;;25.71;36.08;101186.53;4958241;28;20043;-79
2023/08/04 05:46:03;;;;;;;0.52;0.40;;;;;;;25.63;32.93;101184.13;4950791;28;20051;-77
2023/08/04 05:48:32;;;;;;;0.98;0.60;;;;;;;25.53;33.10;101190.53;4949893;28;20047;-78
2023/08/04 05:51:01;;;;;;;1.00;0.60;;;;;;;25.44;32.46;101201.38;4953391;28;20050;-75
2023/08/04 05:53:33;;;;;;;0.77;0.57;;;;;;;25.34;33.85;101198.09;4953420;28;20416;-78
2023/08/04 05:56:02;;;;;;;1.45;0.50;;;;;;;25.28;33.38;101201.75;4941869;28;20138;-77
2023/08/04 05:58:30;;;;;;;1.42;0.32;;;;;;;25.22;33.96;101195.72;4950497;28;20501;-77
2023/08/04 06:00:59;;;;;;;0.47;0.43;;;;;;;25.15;32.85;101202.94;4948972;28;20055;-75
2023/08/04 06:03:27;;;;;;;0.50;0.40;;;;;;;25.13;33.99;101207.41;4950203;28;20077;-77
2023/08/04 06:05:56;;;;;;;0.90;0.60;;;;;;;25.07;32.98;101207.53;4949212;28;20070;-77
2023/08/04 06:08:25;;;;;;;1.17;0.77;;;;;;;24.99;33.38;101197.16;4948631;28;20050;-78
2023/08/04 06:10:55;;;;;;;0.80;0.60;;;;;;;24.90;33.41;101191.16;4945216;28;20114;-77
2023/08/04 06:13:24;;;;;;;1.42;0.60;;;;;;;24.83;33.22;101193.97;4950636;28;20540;-79
2023/08/04 06:15:52;;;;;;;0.68;0.50;;;;;;;24.78;33.28;101187.88;4948848;28;20070;-79
2023/08/04 06:18:26;;;;;;;1.83;0.90;;;;;;;24.70;33.04;101186.34;4949553;28;20110;-79
2023/08/04 06:20:54;;;;;;;0.85;0.60;;;;;;;24.65;34.19;101192.59;4950039;28;20058;-77
2023/08/04 06:23:23;;;;;;;1.13;0.80;;;;;;;24.62;33.91;101194.44;4949196;28;20059;-80
2023/08/04 06:25:54;;;;;;;3.40;0.60;;;;;;;24.62;33.30;101207.66;4948171;28;20051;-76
2023/08/04 06:28:31;;;;;;;0.70;0.50;;;;;;;24.62;35.56;101207.66;4950163;28;20129;-77
2023/08/04 06:31:00;;;;;;;0.85;0.60;;;;;;;24.60;35.03;101217.41;4950358;28;20590;-77
2023/08/04 06:33:29;;;;;;;1.40;0.60;;;;;;;24.50;35.26;101210.59;4949749;28;20083;-78
2023/08/04 06:35:58;;;;;;;1.08;0.60;;;;;;;24.41;34.18;101206.31;4947548;28;20055;-79
2023/08/04 06:38:29;;;;;;;1.30;0.60;;;;;;;24.34;34.81;101210.00;4949813;28;20058;-81
2023/08/04 06:41:00;;;;;;;0.98;0.70;;;;;;;24.30;34.46;101214.47;4948092;28;20536;-80
2023/08/04 06:43:30;;;;;;;0.65;0.40;;;;;;;24.22;33.64;101214.63;4951840;28;20469;-79
2023/08/04 06:45:59;;;;;;;1.85;0.77;;;;;;;24.15;33.81;101204.22;4949754;28;20047;-79
2023/08/04 06:48:30;;;;;;;1.75;0.73;;;;;;;24.22;35.33;101211.13;4950541;28;20058;-82
2023/08/04 06:50:58;;;;;;;0.82;0.55;;;;;;;24.23;33.90;101218.13;4950022;28;20058;-77
2023/08/04 06:53:27;;;;;;;0.75;0.57;;;;;;;24.24;33.82;101219.91;4950066;28;20059;-80
2023/08/04 06:55:56;;;;;;;0.57;0.47;;;;;;;24.23;33.78;101218.13;4950993;28;20054;-78
2023/08/04 06:58:26;;;;;;;0.80;0.60;;;;;;;24.16;37.39;101229.72;4951241;28;20594;-80
2023/08/04 07:00:56;;;;;;;2.53;0.93;;;;;;;24.11;38.93;101239.53;4952082;28;20058;-81
2023/08/04 07:03:25;;;;;;;1.35;0.70;;;;;;;24.03;40.71;101240.56;4949277;28;20050;-85
2023/08/04 07:05:53;;;;;;;1.23;0.80;;;;;;;23.95;41.52;101237.16;4951875;28;20139;-83
2023/08/04 07:08:22;;;;;;;3.13;0.80;;;;;;;23.82;42.86;101244.47;4950805;28;20134;-79
2023/08/04 07:10:53;;;;;;;2.13;0.70;;;;;;;23.63;43.71;101246.50;4951335;28;20047;-81
2023/08/04 07:13:21;;;;;;;1.15;0.80;;;;;;;23.51;44.24;101249.34;4951458;28;20043;-79
2023/08/04 07:15:58;;;;;;;1.20;0.75;;;;;;;23.39;44.89;101249.56;4952335;28;20039;-81
2023/08/04 07:18:26;;;;;;;2.95;1.05;;;;;;;23.25;45.50;101251.50;4950941;28;20525;-79
2023/08/04 07:21:06;;;;;;;1.88;1.00;;;;;;;23.09;45.85;101250.88;4951113;28;20158;-80
2023/08/04 07:23:34;;;;;;;3.83;0.90;;;;;;;22.90;46.75;101255.50;4950101;28;20047;-80
2023/08/04 07:26:03;;;;;;;3.10;0.88;;;;;;;22.77;46.96;101250.41;4955737;28;20054;-82
2023/08/04 07:28:32;;;;;;;1.13;0.70;;;;;;;22.65;47.38;101253.19;4956011;28;20043;-81
2023/08/04 07:31:04;;;;;;;0.70;0.70;;;;;;;22.48;48.35;101249.91;4948554;28;20567;-78
2023/08/04 07:33:33;;;;;;;1.33;0.80;;;;;;;22.26;48.36;101250.13;4947801;28;20106;-82
2023/08/04 07:36:02;;;;;;;1.00;0.63;;;;;;;22.20;49.33;101258.09;4949789;28;20553;-81
2023/08/04 07:38:31;;;;;;;3.03;0.88;;;;;;;22.03;50.06;101260.88;4953135;28;20051;-80
2023/08/04 07:41:02;;;;;;;1.98;0.80;;;;;;;21.84;51.02;101265.44;4941197;28;20055;-80
2023/08/04 07:43:30;;;;;;;1.67;0.70;;;;;;;21.72;49.83;101265.56;4947851;28;20119;-78
2023/08/04 07:45:59;;;;;;;2.17;1.02;;;;;;;21.71;50.66;101276.97;4947542;28;20052;-80
2023/08/04 07:48:29;;;;;;;1.00;0.82;;;;;;;21.66;51.43;101271.75;4947584;28;20047;-80
2023/08/04 07:50:58;;;;;;;0.85;0.70;;;;;;;21.62;50.71;101270.00;4947686;28;20082;-82
2023/08/04 07:53:28;;;;;;;0.80;0.60;;;;;;;21.62;50.40;101271.78;4947451;28;20047;-80
2023/08/04 07:55:58;;;;;;;0.95;0.73;;;;;;;21.62;50.25;101269.16;4947903;28;20051;-80
2023/08/04 07:58:27;;;;;;;1.13;0.70;;;;;;;21.54;49.01;101274.50;4949682;28;20051;-79
2023/08/04 08:00:55;;;;;;;0.98;0.60;;;;;;;21.43;48.83;101271.94;4949499;28;20063;-81
2023/08/04 08:03:27;;;;;;;1.10;0.73;;;;;;;21.37;47.48;101277.19;4949465;28;20055;-81
2023/08/04 08:05:57;;;;;;;1.50;0.60;;;;;;;21.32;46.95;101265.81;4952335;28;20803;-81
2023/08/04 08:08:26;;;;;;;0.47;0.47;;;;;;;21.33;49.04;101272.84;4953333;28;20234;-80
2023/08/04 08:10:54;;;;;;;2.22;0.98;;;;;;;21.34;49.67;101272.81;4952474;28;20493;-79
2023/08/04 08:13:23;;;;;;;1.45;0.60;;;;;;;21.34;49.11;101258.78;4961624;28;20051;-79
2023/08/04 08:15:51;;;;;;;1.13;0.68;;;;;;;21.37;46.89;101263.16;4953507;28;20085;-80
2023/08/04 08:18:20;;;;;;;1.10;0.70;;;;;;;21.36;46.54;101266.69;4953132;28;20277;-79
2023/08/04 08:20:49;;;;;;;1.17;0.70;;;;;;;21.32;45.12;101268.47;4950141;28;20047;-81
2023/08/04 08:23:19;;;;;;;1.85;0.75;;;;;;;21.27;44.53;101268.47;4952990;28;20055;-80
2023/08/04 08:25:47;;;;;;;0.70;0.68;;;;;;;21.25;46.39;101269.38;4952528;28;20542;-80
2023/08/04 08:28:16;;;;;;;1.10;0.52;;;;;;;21.21;45.99;101273.81;4953228;28;20588;-79
2023/08/04 08:30:45;;;;;;;1.13;0.60;;;;;;;21.16;44.67;101282.59;4956397;28;20094;-80
2023/08/04 08:33:13;;;;;;;1.35;0.55;;;;;;;21.12;44.16;101280.00;4954175;28;20051;-78
2023/08/04 08:35:42;;;;;;;0.90;0.50;;;;;;;21.12;44.54;101280.00;4953891;28;20490;-80
2023/08/04 08:38:15;;;;;;;0.75;0.47;;;;;;;21.13;44.93;101271.22;4951589;28;20051;-79
2023/08/04 08:40:48;;;;;;;2.05;0.70;;;;;;;21.14;45.83;101272.06;4952519;28;20047;-79
2023/08/04 08:43:15;;;;;;;;;;;;;;;21.15;45.76;101273.84;4953603;28;20051;-79
2023/08/04 08:45:45;;;;;;;0.90;0.50;;;;;;;21.12;45.78;101269.47;4952692;28;20365;-79
2023/08/04 08:48:14;;;;;;;5.97;0.60;;;;;;;21.10;45.29;101265.97;4951838;28;20140;-79
2023/08/04 08:50:45;;;;;;;1.00;0.50;;;;;;;21.07;45.00;101279.16;4953201;28;20081;-79
2023/08/04 08:53:16;;;;;;;1.63;0.30;;;;;;;21.00;44.70;101280.03;4953066;28;20078;-79
2023/08/04 08:55:47;;;;;;;0.57;0.43;;;;;;;20.99;44.65;101290.59;4952027;28;20054;-78
2023/08/04 08:58:17;;;;;;;0.63;0.40;;;;;;;20.96;44.74;101293.22;4953716;28;20047;-80
2023/08/04 09:00:46;;;;;;;0.47;0.40;;;;;;;20.92;44.35;101287.13;4951898;28;20592;-79
2023/08/04 09:03:15;;;;;;;0.50;0.35;;;;;;;20.92;44.46;101285.34;4953013;28;20047;-78
2023/08/04 09:05:43;;;;;;;0.35;0.30;;;;;;;20.95;44.49;101289.72;4953485;28;20089;-78
2023/08/04 09:08:12;;;;;;;0.88;0.47;;;;;;;20.97;43.98;101295.00;4951906;28;20047;-78
2023/08/04 09:10:47;;;;;;;0.95;0.40;;;;;;;20.93;43.76;101291.47;4951836;28;20051;-79
2023/08/04 09:13:17;;;;;;;0.77;0.50;;;;;;;20.92;43.38;101292.38;4949220;28;20055;-78
2023/08/04 09:15:50;;;;;;;1.83;0.45;;;;;;;20.92;43.92;101298.50;4952379;28;20522;-78
2023/08/04 09:18:27;;;;;;;0.70;0.65;;;;;;;20.94;43.71;101298.50;4952710;28;20076;-80
2023/08/04 09:21:13;;;;;;;0.57;0.45;;;;;;;20.93;43.99;101302.00;4953782;28;20051;-79
2023/08/04 09:23:49;;;;;;;0.95;0.50;;;;;;;20.93;44.28;101310.75;4955992;28;20103;-80
2023/08/04 09:26:18;;;;;;;1.08;0.40;;;;;;;20.94;44.13;101303.78;4955983;28;20043;-80
2023/08/04 09:29:05;;;;;;;0.30;0.30;;;;;;;20.91;44.08;101309.94;4952105;28;20047;-81
2023/08/04 09:31:37;;;;;;;0.40;0.40;;;;;;;20.87;44.31;101315.22;4952308;28;20082;-79
2023/08/04 09:34:07;;;;;;;0.30;0.30;;;;;;;20.81;44.58;101320.47;4951878;28;20058;-77
2023/08/04 09:36:43;;;;;;;0.68;0.50;;;;;;;20.76;45.03;101319.63;4955449;28;20055;-78
2023/08/04 09:39:12;;;;;;;0.50;0.40;;;;;;;20.71;44.83;101325.78;4953980;28;20087;-77
2023/08/04 09:41:43;;;;;;;1.67;1.00;;;;;;;20.67;45.74;101324.03;4953157;28;20059;-79
2023/08/04 09:44:14;;;;;;;1.00;0.43;;;;;;;20.67;45.38;101329.28;4952508;28;20043;-79
2023/08/04 09:46:50;;;;;;;0.70;0.50;;;;;;;20.66;45.43;101330.19;4952510;28;20130;-79
2023/08/04 09:49:20;;;;;;;2.92;0.40;;;;;;;20.65;45.59;101325.78;4951286;28;20513;-78
2023/08/04 09:51:50;;;;;;;1.08;0.70;;;;;;;20.64;45.61;101326.69;4954382;28;20078;-78
2023/08/04 09:54:19;;;;;;;1.15;0.50;;;;;;;20.63;45.42;101322.28;4952414;28;20449;-78
2023/08/04 09:56:49;;;;;;;0.60;0.50;;;;;;;20.62;46.01;101317.03;4951583;28;20047;-78
2023/08/04 09:59:20;;;;;;;2.25;0.70;;;;;;;20.58;46.05;101313.53;4950566;28;20052;-79
2023/08/04 10:01:49;;;;;;;0.85;0.47;;;;;;;20.55;46.23;101313.53;4951362;28;20134;-78
2023/08/04 10:04:19;;;;;;;0.60;0.40;;;;;;;20.53;46.27;101323.16;4951681;28;20197;-78
2023/08/04 10:06:48;;;;;;;0.60;0.40;;;;;;;20.49;46.63;101314.41;4953853;28;20482;-78
2023/08/04 10:09:17;;;;;;;0.60;0.40;;;;;;;20.41;47.26;101329.34;4949892;28;20043;-78
2023/08/04 10:11:46;;;;;;;0.98;0.40;;;;;;;20.28;49.20;101336.34;4951089;28;20047;-79
2023/08/04 10:14:15;;;;;;;0.55;0.52;;;;;;;20.14;49.61;101327.63;4951897;28;20047;-79
2023/08/04 10:16:46;;;;;;;0.77;0.50;;;;;;;20.06;49.88;101331.97;4954033;28;20434;-80
2023/08/04 10:19:20;;;;;;;1.02;0.50;;;;;;;20.03;49.84;101330.22;4952289;28;20492;-78
2023/08/04 10:21:48;;;;;;;0.85;0.40;;;;;;;20.03;50.63;101327.59;4950155;28;20127;-78
2023/08/04 10:24:19;;;;;;;1.02;0.50;;;;;;;20.04;50.07;101328.47;4952344;28;20048;-77
2023/08/04 10:26:49;;;;;;;1.17;0.70;;;;;;;20.01;50.13;101331.97;4950458;28;20051;-79
2023/08/04 10:29:19;;;;;;;1.45;0.63;;;;;;;20.03;49.79;101329.38;4950513;28;20065;-77
2023/08/04 10:31:52;;;;;;;1.48;0.55;;;;;;;20.00;49.19;101335.50;4950678;28;20047;-78
2023/08/04 10:34:25;;;;;;;0.73;0.38;;;;;;;19.97;49.40;101334.63;4947797;28;20043;-78
2023/08/04 10:37:05;;;;;;;0.70;0.45;;;;;;;19.96;50.02;101340.75;4951423;28;20051;-78
2023/08/04 10:39:36;;;;;;;0.70;0.40;;;;;;;19.91;50.62;101342.50;4950570;28;20152;-76
2023/08/04 10:42:14;;;;;;;1.85;0.60;;;;;;;19.84;50.72;101341.63;4950721;28;20051;-78
2023/08/04 10:44:53;;;;;;;1.50;0.43;;;;;;;19.82;50.66;101353.88;4952024;28;20051;-78
2023/08/04 10:47:45;;;;;;;1.05;0.40;;;;;;;19.75;51.31;101350.38;4952005;28;20088;-80
2023/08/04 10:50:14;;;;;;;0.50;0.40;;;;;;;19.67;51.41;101352.06;4947354;28;20047;-80
2023/08/04 10:52:44;;;;;;;0.50;0.50;;;;;;;19.61;51.13;101352.06;4950569;28;20139;-81
2023/08/04 10:55:14;;;;;;;0.75;0.60;;;;;;;19.58;51.68;101357.31;4950965;28;20058;-79
2023/08/04 10:57:43;;;;;;;0.70;0.50;;;;;;;19.56;51.75;101345.91;4948878;28;20130;-78
2023/08/04 11:00:14;;;;;;;2.67;0.77;;;;;;;19.53;52.34;101353.78;4947191;28;20055;-78
2023/08/04 11:02:44;;;;;;;0.70;0.55;;;;;;;19.48;52.52;101355.53;4950540;28;20062;-78
2023/08/04 11:05:13;;;;;;;1.98;0.73;;;;;;;19.42;52.16;101357.28;4950250;28;20050;-78
2023/08/04 11:07:47;;;;;;;1.48;0.35;;;;;;;19.39;52.58;101352.00;4954810;28;20054;-79
2023/08/04 11:10:16;;;;;;;1.17;0.50;;;;;;;19.36;52.16;101362.50;4952893;28;20139;-79
2023/08/04 11:12:44;;;;;;;1.88;0.77;;;;;;;19.31;53.16;101361.63;4955396;28;20053;-77
2023/08/04 11:15:13;;;;;;;2.97;0.77;;;;;;;19.21;54.01;101365.94;4951491;28;20055;-80
2023/08/04 11:17:42;;;;;;;1.45;0.82;;;;;;;19.17;56.87;101366.81;4950713;28;20039;-78
2023/08/04 11:20:15;;;;;;;1.58;0.75;;;;;;;19.13;59.19;101372.06;4951642;28;20135;-77
2023/08/04 11:22:46;;;;;;;0.65;0.65;;;;;;;19.07;59.60;101379.88;4951313;28;20075;-77
2023/08/04 11:25:15;;;;;;;1.15;0.70;;;;;;;19.07;62.64;101374.66;4951182;28;20062;-78
2023/08/04 11:27:44;;;;;;;1.20;0.52;;;;;;;19.03;63.08;101371.13;4948893;28;20051;-79
2023/08/04 11:30:13;;;;;;;1.17;0.55;;;;;;;19.01;63.22;101368.50;4951041;28;20051;-79
2023/08/04 11:32:41;;;;;;;1.92;0.73;;;;;;;18.96;63.32;101367.59;4952652;28;20098;-78
2023/08/04 11:35:10;;;;;;;1.27;0.80;;;;;;;18.96;63.12;101367.59;4954783;28;20039;-79
2023/08/04 11:37:44;;;;;;;1.15;0.65;;;;;;;18.89;62.27;101364.94;4953769;28;20051;-78